createdAt,value
2019-04-07T00:01:57.316Z,10.49
2019-04-07T00:04:27.270Z,10.43
2019-04-07T00:06:56.835Z,10.49
2019-04-07T00:09:26.497Z,10.38
2019-04-07T00:11:56.235Z,10.31
2019-04-07T00:14:26.108Z,10.36
2019-04-07T00:16:55.885Z,10.30
2019-04-07T00:19:25.639Z,10.31
2019-04-07T00:21:55.752Z,10.27
2019-04-07T00:24:25.525Z,10.28
2019-04-07T00:26:55.149Z,10.22
2019-04-07T00:29:24.813Z,10.14
2019-04-07T00:31:54.455Z,10.21
2019-04-07T00:34:24.728Z,10.19
2019-04-07T00:36:55.773Z,10.16
2019-04-07T00:39:25.940Z,10.15
2019-04-07T00:41:56.517Z,10.09
2019-04-07T00:44:26.271Z,10.04
2019-04-07T00:46:55.887Z,10.01
2019-04-07T00:49:25.811Z,9.97
2019-04-07T00:51:56.118Z,9.92
2019-04-07T00:54:25.786Z,9.90
2019-04-07T00:56:55.652Z,9.90
2019-04-07T00:59:25.477Z,9.86
2019-04-07T01:01:55.286Z,9.86
2019-04-07T01:04:25.354Z,9.75
2019-04-07T01:06:55.005Z,9.75
2019-04-07T01:09:24.683Z,9.68
2019-04-07T01:11:54.789Z,9.67
2019-04-07T01:14:25.603Z,9.53
2019-04-07T01:16:56.445Z,9.52
2019-04-07T01:19:26.701Z,9.48
2019-04-07T01:21:56.441Z,9.45
2019-04-07T01:24:26.606Z,9.45
2019-04-07T01:26:56.739Z,9.47
2019-04-07T01:29:26.868Z,9.47
2019-04-07T01:31:56.494Z,9.45
2019-04-07T01:34:26.250Z,9.44
2019-04-07T01:36:55.888Z,9.32
2019-04-07T01:39:25.663Z,9.37
2019-04-07T01:42:02.946Z,9.33
2019-04-07T01:44:37.156Z,9.33
2019-04-07T01:47:23.180Z,9.29
2019-04-07T01:49:54.475Z,9.19
2019-04-07T01:52:40.600Z,9.18
2019-04-07T01:55:15.517Z,9.14
2019-04-07T01:57:46.756Z,9.10
2019-04-07T02:00:27.107Z,9.05
2019-04-07T02:03:10.107Z,9.04
2019-04-07T02:05:44.315Z,8.98
2019-04-07T02:08:18.458Z,8.88
2019-04-07T02:10:49.750Z,8.84
2019-04-07T02:13:37.181Z,8.84
2019-04-07T02:16:23.607Z,8.86
2019-04-07T02:18:55.450Z,8.93
2019-04-07T02:21:27.391Z,8.85
2019-04-07T02:23:59.078Z,8.80
2019-04-07T02:26:41.339Z,8.86
2019-04-07T02:29:29.154Z,8.76
2019-04-07T02:32:16.077Z,8.78
2019-04-07T02:35:03.695Z,8.77
2019-04-07T02:37:38.622Z,8.68
2019-04-07T02:40:16.138Z,8.66
2019-04-07T02:42:53.213Z,8.58
2019-04-07T02:45:28.227Z,8.54
2019-04-07T02:48:18.122Z,8.51
2019-04-07T02:51:01.538Z,8.47
2019-04-07T02:53:33.073Z,8.50
2019-04-07T02:56:08.093Z,8.51
2019-04-07T02:58:40.216Z,8.47
2019-04-07T03:01:27.900Z,8.52
2019-04-07T03:04:07.933Z,8.55
2019-04-07T03:06:47.765Z,8.52
2019-04-07T03:09:24.460Z,8.43
2019-04-07T03:12:05.228Z,8.45
2019-04-07T03:14:39.308Z,8.36
2019-04-07T03:17:27.441Z,8.34
2019-04-07T03:20:01.172Z,8.32
2019-04-07T03:22:48.741Z,8.29
2019-04-07T03:25:32.485Z,8.31
2019-04-07T03:28:04.645Z,8.34
2019-04-07T03:30:52.443Z,8.31
2019-04-07T03:33:43.363Z,8.27
2019-04-07T03:36:30.264Z,8.28
2019-04-07T03:39:01.997Z,8.15
2019-04-07T03:41:49.405Z,8.12
2019-04-07T03:44:20.701Z,8.11
2019-04-07T03:47:08.830Z,8.09
2019-04-07T03:49:43.538Z,8.03
2019-04-07T03:52:25.013Z,7.99
2019-04-07T03:55:01.860Z,7.95
2019-04-07T03:57:33.194Z,7.92
2019-04-07T04:00:10.590Z,7.94
2019-04-07T04:02:56.816Z,7.93
2019-04-07T04:05:34.201Z,7.88
2019-04-07T04:08:11.618Z,7.90
2019-04-07T04:11:00.037Z,7.90
2019-04-07T04:13:41.142Z,7.79
2019-04-07T04:16:11.202Z,7.76
2019-04-07T04:18:40.826Z,7.74
2019-04-07T04:21:11.273Z,7.67
2019-04-07T04:23:42.931Z,7.66
2019-04-07T04:26:12.976Z,7.67
2019-04-07T04:28:43.003Z,7.67
2019-04-07T04:31:13.007Z,7.65
2019-04-07T04:33:42.674Z,7.66
2019-04-07T04:36:13.453Z,7.58
2019-04-07T04:38:44.050Z,7.57
2019-04-07T04:41:13.810Z,7.60
2019-04-07T04:43:43.465Z,7.67
2019-04-07T04:46:13.567Z,7.66
2019-04-07T04:48:43.275Z,7.73
2019-04-07T04:51:13.695Z,7.69
2019-04-07T04:53:44.299Z,7.71
2019-04-07T04:56:14.613Z,7.70
2019-04-07T04:58:44.385Z,7.74
2019-04-07T05:01:16.437Z,7.79
2019-04-07T05:03:46.262Z,7.78
2019-04-07T05:06:15.916Z,7.79
2019-04-07T05:08:45.686Z,7.88
2019-04-07T05:11:15.858Z,7.90
2019-04-07T05:13:45.521Z,7.94
2019-04-07T05:16:15.154Z,7.97
2019-04-07T05:18:44.985Z,8.02
2019-04-07T05:21:15.101Z,8.11
2019-04-07T05:23:45.096Z,8.18
2019-04-07T05:26:14.773Z,8.41
2019-04-07T05:28:45.046Z,8.37
2019-04-07T05:31:14.721Z,8.42
2019-04-07T05:33:44.913Z,8.40
2019-04-07T05:36:14.789Z,8.41
2019-04-07T05:38:44.592Z,8.53
2019-04-07T05:41:14.233Z,8.59
2019-04-07T05:43:43.881Z,8.63
2019-04-07T05:46:13.846Z,8.70
2019-04-07T05:48:43.640Z,8.71
2019-04-07T05:51:13.404Z,8.73
2019-04-07T05:53:46.427Z,8.74
2019-04-07T05:56:14.417Z,8.73
2019-04-07T05:58:44.081Z,8.87
2019-04-07T06:01:14.050Z,8.94
2019-04-07T06:03:43.763Z,9.03
2019-04-07T06:06:13.537Z,9.11
2019-04-07T06:08:43.204Z,9.19
2019-04-07T06:11:12.835Z,9.29
2019-04-07T06:13:44.596Z,9.31
2019-04-07T06:16:14.060Z,9.43
2019-04-07T06:18:44.445Z,9.56
2019-04-07T06:21:16.092Z,9.63
2019-04-07T06:23:45.524Z,9.73
2019-04-07T06:26:15.162Z,9.79
2019-04-07T06:28:48.455Z,9.90
2019-04-07T06:31:16.178Z,10.04
2019-04-07T06:33:45.893Z,10.12
2019-04-07T06:36:19.490Z,10.23
2019-04-07T06:38:51.350Z,10.37
2019-04-07T06:41:18.443Z,10.49
2019-04-07T06:43:48.043Z,10.66
2019-04-07T06:46:19.635Z,10.79
2019-04-07T06:49:02.701Z,10.85
2019-04-07T06:51:52.762Z,11.01
2019-04-07T06:54:26.782Z,11.10
2019-04-07T06:57:05.979Z,11.26
2019-04-07T06:59:40.534Z,11.37
2019-04-07T07:02:18.622Z,11.49
2019-04-07T07:04:59.365Z,11.58
2019-04-07T07:07:42.716Z,11.67
2019-04-07T07:10:25.269Z,11.74
2019-04-07T07:12:47.217Z,11.83
2019-04-07T07:15:33.101Z,11.89
2019-04-07T07:18:15.519Z,12.03
2019-04-07T07:20:47.341Z,12.13
2019-04-07T07:23:18.746Z,12.24
2019-04-07T07:25:48.623Z,12.42
2019-04-07T07:28:18.355Z,12.55
2019-04-07T07:30:51.110Z,12.64
2019-04-07T07:33:20.221Z,12.75
2019-04-07T07:35:50.795Z,12.82
2019-04-07T07:38:20.496Z,12.90
2019-04-07T07:40:50.203Z,12.94
2019-04-07T07:43:19.908Z,13.10
2019-04-07T07:45:50.169Z,13.26
2019-04-07T07:48:20.815Z,13.45
2019-04-07T07:50:51.263Z,13.52
2019-04-07T07:53:23.670Z,13.64
2019-04-07T07:55:52.867Z,13.75
2019-04-07T07:58:22.636Z,13.93
2019-04-07T08:00:52.525Z,13.98
2019-04-07T08:03:22.942Z,14.09
2019-04-07T08:05:53.305Z,14.31
2019-04-07T08:08:23.441Z,14.40
2019-04-07T08:10:56.183Z,14.58
2019-04-07T08:13:24.820Z,14.70
2019-04-07T08:15:56.838Z,14.87
2019-04-07T08:18:26.186Z,15.06
2019-04-07T08:20:55.807Z,15.27
2019-04-07T08:23:26.237Z,15.33
2019-04-07T08:25:57.780Z,15.58
2019-04-07T08:28:27.286Z,15.54
2019-04-07T08:30:57.589Z,15.73
2019-04-07T08:33:29.508Z,15.79
2019-04-07T08:35:58.932Z,16.07
2019-04-07T08:38:28.549Z,16.43
2019-04-07T08:40:58.666Z,16.56
2019-04-07T08:43:28.327Z,16.76
2019-04-07T08:45:58.085Z,16.99
2019-04-07T08:48:27.942Z,16.88
2019-04-07T08:51:00.468Z,17.06
2019-04-07T08:53:29.460Z,17.27
2019-04-07T08:55:59.773Z,17.46
2019-04-07T08:58:33.128Z,17.76
2019-04-07T09:01:00.898Z,17.76
2019-04-07T09:03:30.537Z,17.88
2019-04-07T09:06:00.971Z,18.09
2019-04-07T09:08:30.734Z,18.44
2019-04-07T09:11:02.063Z,18.56
2019-04-07T09:13:34.078Z,18.54
2019-04-07T09:16:14.471Z,18.86
2019-04-07T09:19:03.808Z,19.01
2019-04-07T09:21:51.727Z,19.32
2019-04-07T09:24:24.905Z,19.63
2019-04-07T09:27:12.012Z,19.99
2019-04-07T09:30:02.441Z,20.38
2019-04-07T09:32:36.813Z,21.06
2019-04-07T09:35:25.724Z,21.80
2019-04-07T09:37:56.424Z,22.33
2019-04-07T09:40:27.928Z,22.94
2019-04-07T09:43:02.906Z,23.50
2019-04-07T09:45:49.947Z,24.03
2019-04-07T09:48:22.896Z,24.64
2019-04-07T09:51:07.299Z,24.90
2019-04-07T09:53:48.823Z,24.97
2019-04-07T09:56:33.701Z,25.07
2019-04-07T09:59:20.321Z,25.12
2019-04-07T10:01:54.186Z,25.35
2019-04-07T10:04:31.211Z,25.59
2019-04-07T10:07:09.212Z,25.75
2019-04-07T10:09:47.979Z,26.24
2019-04-07T10:12:27.765Z,26.01
2019-04-07T10:15:11.723Z,26.63
2019-04-07T10:17:43.781Z,26.31
2019-04-07T10:20:27.516Z,26.34
2019-04-07T10:23:05.183Z,26.30
2019-04-07T10:25:42.692Z,26.58
2019-04-07T10:28:26.672Z,26.31
2019-04-07T10:31:01.007Z,25.69
2019-04-07T10:33:35.770Z,25.70
2019-04-07T10:36:15.932Z,26.65
2019-04-07T10:38:48.021Z,26.83
2019-04-07T10:41:22.820Z,27.34
2019-04-07T10:43:54.120Z,27.21
2019-04-07T10:46:25.970Z,27.21
2019-04-07T10:49:00.286Z,27.10
2019-04-07T10:51:35.344Z,27.72
2019-04-07T10:54:12.716Z,28.00
2019-04-07T10:56:48.028Z,27.66
2019-04-07T10:59:19.935Z,27.84
2019-04-07T11:01:51.368Z,27.49
2019-04-07T11:04:38.778Z,27.63
2019-04-07T11:07:21.938Z,27.66
2019-04-07T11:10:02.904Z,27.96
2019-04-07T11:12:53.680Z,28.19
2019-04-07T11:15:34.081Z,27.75
2019-04-07T11:18:11.160Z,28.18
2019-04-07T11:20:58.994Z,28.57
2019-04-07T11:23:30.280Z,29.11
2019-04-07T11:26:18.036Z,29.15
2019-04-07T11:28:55.578Z,28.53
2019-04-07T11:31:27.686Z,28.58
2019-04-07T11:34:01.774Z,28.36
2019-04-07T11:36:36.365Z,28.83
2019-04-07T11:39:26.415Z,29.23
2019-04-07T11:42:06.213Z,29.49
2019-04-07T11:44:37.663Z,29.60
2019-04-07T11:47:15.377Z,29.72
2019-04-07T11:49:52.401Z,29.57
2019-04-07T11:52:26.622Z,30.26
2019-04-07T11:55:00.980Z,30.45
2019-04-07T11:57:45.301Z,30.78
2019-04-07T12:00:25.901Z,30.55
2019-04-07T12:03:09.586Z,30.48
2019-04-07T12:05:46.465Z,30.98
2019-04-07T12:08:20.450Z,31.06
2019-04-07T12:11:07.919Z,31.39
2019-04-07T12:13:42.774Z,31.26
2019-04-07T12:16:12.223Z,31.92
2019-04-07T12:18:44.077Z,31.78
2019-04-07T12:21:21.887Z,31.58
2019-04-07T12:23:55.040Z,31.63
2019-04-07T12:26:27.038Z,32.07
2019-04-07T12:28:58.318Z,31.97
2019-04-07T12:31:35.890Z,32.27
2019-04-07T12:34:23.611Z,31.08
2019-04-07T12:37:11.107Z,30.99
2019-04-07T12:39:49.509Z,30.57
2019-04-07T12:42:18.577Z,30.49
2019-04-07T12:44:52.886Z,30.51
2019-04-07T12:47:41.090Z,30.82
2019-04-07T12:50:19.730Z,30.74
2019-04-07T12:52:51.877Z,30.41
2019-04-07T12:55:23.283Z,30.18
2019-04-07T12:57:54.529Z,30.25
2019-04-07T13:00:25.845Z,30.09
2019-04-07T13:02:57.111Z,29.83
2019-04-07T13:05:34.623Z,29.51
2019-04-07T13:08:04.091Z,29.87
2019-04-07T13:10:37.904Z,29.45
2019-04-07T13:13:12.351Z,28.21
2019-04-07T13:15:49.863Z,27.84
2019-04-07T13:18:25.417Z,27.35
2019-04-07T13:20:59.400Z,26.70
2019-04-07T13:23:49.286Z,26.21
2019-04-07T13:26:22.788Z,26.06
2019-04-07T13:28:59.246Z,25.74
2019-04-07T13:31:30.550Z,25.46
2019-04-07T13:34:17.845Z,24.98
2019-04-07T13:37:01.289Z,25.01
2019-04-07T13:39:39.231Z,25.15
2019-04-07T13:42:15.282Z,25.08
2019-04-07T13:44:52.653Z,25.04
2019-04-07T13:47:30.123Z,25.16
2019-04-07T13:50:05.218Z,25.59
2019-04-07T13:52:40.859Z,26.22
2019-04-07T13:55:19.523Z,26.05
2019-04-07T13:57:57.839Z,25.90
2019-04-07T14:00:29.489Z,25.70
2019-04-07T14:03:06.962Z,25.43
2019-04-07T14:05:54.923Z,25.24
2019-04-07T14:08:40.605Z,25.03
2019-04-07T14:11:20.993Z,24.82
2019-04-07T14:14:11.167Z,24.77
2019-04-07T14:16:54.729Z,24.58
2019-04-07T14:19:44.469Z,24.32
2019-04-07T14:22:27.719Z,24.14
2019-04-07T14:25:07.997Z,23.88
2019-04-07T14:27:40.305Z,23.88
2019-04-07T14:30:12.561Z,23.66
2019-04-07T14:32:48.642Z,23.61
2019-04-07T14:35:35.707Z,23.51
2019-04-07T14:38:13.548Z,23.51
2019-04-07T14:40:47.587Z,23.38
2019-04-07T14:43:21.645Z,23.49
2019-04-07T14:46:10.058Z,23.33
2019-04-07T14:48:44.820Z,23.34
2019-04-07T14:51:25.173Z,23.40
2019-04-07T14:54:03.006Z,23.34
2019-04-07T14:56:46.736Z,23.35
2019-04-07T14:59:27.681Z,23.51
2019-04-07T15:02:00.899Z,23.93
2019-04-07T15:04:34.559Z,23.61
2019-04-07T15:07:21.916Z,24.16
2019-04-07T15:09:53.527Z,24.74
2019-04-07T15:12:26.352Z,24.69
2019-04-07T15:14:56.144Z,25.26
2019-04-07T15:17:26.268Z,24.55
2019-04-07T15:19:57.128Z,23.84
2019-04-07T15:22:29.973Z,23.32
2019-04-07T15:24:58.159Z,23.14
2019-04-07T15:27:28.326Z,22.86
2019-04-07T15:29:58.816Z,22.77
2019-04-07T15:32:29.987Z,22.56
2019-04-07T15:35:00.064Z,22.45
2019-04-07T15:37:30.037Z,22.28
2019-04-07T15:40:02.673Z,22.32
2019-04-07T15:42:38.975Z,22.06
2019-04-07T15:45:02.553Z,21.95
2019-04-07T15:47:32.172Z,21.85
2019-04-07T15:50:02.949Z,21.73
2019-04-07T15:52:32.853Z,21.73
2019-04-07T15:55:02.458Z,21.62
2019-04-07T15:57:32.518Z,21.54
2019-04-07T16:00:03.941Z,21.47
2019-04-07T16:02:33.602Z,21.38
2019-04-07T16:05:07.186Z,21.27
2019-04-07T16:07:37.413Z,21.12
2019-04-07T16:10:08.034Z,20.96
2019-04-07T16:12:45.125Z,20.86
2019-04-07T16:15:09.643Z,20.83
2019-04-07T16:17:40.198Z,20.75
2019-04-07T16:20:20.711Z,20.66
2019-04-07T16:22:45.824Z,20.58
2019-04-07T16:25:14.418Z,20.48
2019-04-07T16:27:44.628Z,20.36
2019-04-07T16:30:16.483Z,20.31
2019-04-07T16:32:45.744Z,20.21
2019-04-07T16:35:16.610Z,20.10
2019-04-07T16:37:46.361Z,19.98
2019-04-07T16:40:16.535Z,19.87
2019-04-07T16:43:02.969Z,19.75
2019-04-07T16:45:18.067Z,19.66
2019-04-07T16:47:47.841Z,19.59
2019-04-07T16:50:18.869Z,19.51
2019-04-07T16:52:49.648Z,19.42
2019-04-07T16:55:37.502Z,19.30
2019-04-07T16:58:08.426Z,19.21
2019-04-07T17:00:39.870Z,19.17
2019-04-07T17:03:10.048Z,19.08
2019-04-07T17:05:39.921Z,18.84
2019-04-07T17:08:09.762Z,18.84
2019-04-07T17:10:39.376Z,18.70
2019-04-07T17:13:17.047Z,18.68
2019-04-07T17:15:41.838Z,18.54
2019-04-07T17:18:31.107Z,18.47
2019-04-07T17:21:00.779Z,18.34
2019-04-07T17:23:30.420Z,18.20
2019-04-07T17:26:03.206Z,18.06
2019-04-07T17:28:31.414Z,17.93
2019-04-07T17:31:01.447Z,17.80
2019-04-07T17:33:35.152Z,17.66
2019-04-07T17:36:02.506Z,17.54
2019-04-07T17:38:45.661Z,17.40
2019-04-07T17:41:18.189Z,17.18
2019-04-07T17:43:53.445Z,16.94
2019-04-07T17:46:37.611Z,16.69
2019-04-07T17:49:12.108Z,16.56
2019-04-07T17:51:51.882Z,16.39
2019-04-07T17:54:32.425Z,16.20
2019-04-07T17:57:07.010Z,16.10
2019-04-07T17:59:48.434Z,15.95
2019-04-07T18:02:37.586Z,15.84
2019-04-07T18:05:26.618Z,15.71
2019-04-07T18:08:10.217Z,15.68
2019-04-07T18:10:43.273Z,15.59
2019-04-07T18:13:21.736Z,15.51
2019-04-07T18:15:59.890Z,15.44
2019-04-07T18:18:41.148Z,15.40
2019-04-07T18:21:15.447Z,15.31
2019-04-07T18:23:56.859Z,15.22
2019-04-07T18:26:29.784Z,15.21
2019-04-07T18:29:17.287Z,15.21
2019-04-07T18:32:09.708Z,15.25
2019-04-07T18:34:46.204Z,15.21
2019-04-07T18:37:18.000Z,15.17
2019-04-07T18:40:05.523Z,15.00
2019-04-07T18:42:44.330Z,14.89
2019-04-07T18:45:18.997Z,14.84
2019-04-07T18:47:52.349Z,14.76
2019-04-07T18:50:23.999Z,14.72
2019-04-07T18:52:57.086Z,14.54
2019-04-07T18:55:40.402Z,14.43
2019-04-07T18:58:29.704Z,14.25
2019-04-07T19:01:07.332Z,14.20
2019-04-07T19:03:33.998Z,14.01
2019-04-07T19:06:21.406Z,13.89
2019-04-07T19:09:00.995Z,13.73
2019-04-07T19:11:48.304Z,13.58
2019-04-07T19:14:40.217Z,13.40
2019-04-07T19:17:07.031Z,13.28
2019-04-07T19:19:53.238Z,13.08
2019-04-07T19:22:30.295Z,12.96
2019-04-07T19:25:09.254Z,12.86
2019-04-07T19:27:40.715Z,12.79
2019-04-07T19:30:14.436Z,12.82
2019-04-07T19:32:55.598Z,12.80
2019-04-07T19:35:36.445Z,12.78
2019-04-07T19:38:04.894Z,12.66
2019-04-07T19:40:49.252Z,12.62
2019-04-07T19:43:37.170Z,12.50
2019-04-07T19:46:14.653Z,12.29
2019-04-07T19:48:45.989Z,12.23
2019-04-07T19:51:19.881Z,12.06
2019-04-07T19:54:06.608Z,12.04
2019-04-07T19:56:44.399Z,12.01
2019-04-07T19:59:15.723Z,11.96
2019-04-07T20:01:50.342Z,11.72
2019-04-07T20:04:24.825Z,11.69
2019-04-07T20:07:09.218Z,11.65
2019-04-07T20:09:56.804Z,11.47
2019-04-07T20:12:45.426Z,11.37
2019-04-07T20:15:35.896Z,11.29
2019-04-07T20:18:15.395Z,11.20
2019-04-07T20:20:46.719Z,11.15
2019-04-07T20:23:36.151Z,11.11
2019-04-07T20:26:07.966Z,11.11
2019-04-07T20:28:43.604Z,11.03
2019-04-07T20:31:21.877Z,10.86
2019-04-07T20:34:04.610Z,10.83
2019-04-07T20:36:40.225Z,10.79
2019-04-07T20:39:11.572Z,10.74
2019-04-07T20:41:45.510Z,10.67
2019-04-07T20:44:17.685Z,10.57
2019-04-07T20:46:56.816Z,10.55
2019-04-07T20:49:34.021Z,10.53
2019-04-07T20:52:22.257Z,10.49
2019-04-07T20:55:05.740Z,10.45
2019-04-07T20:57:46.268Z,10.39
2019-04-07T21:00:37.197Z,10.34
2019-04-07T21:03:23.804Z,10.29
2019-04-07T21:06:10.577Z,10.25
2019-04-07T21:08:51.739Z,10.23
2019-04-07T21:11:42.886Z,10.19
2019-04-07T21:14:23.975Z,10.16
2019-04-07T21:17:01.623Z,10.05
2019-04-07T21:19:49.707Z,9.96
2019-04-07T21:22:23.936Z,9.93
2019-04-07T21:25:09.736Z,9.95
2019-04-07T21:27:48.936Z,9.92
2019-04-07T21:30:20.650Z,9.89
2019-04-07T21:32:58.023Z,9.82
2019-04-07T21:35:40.828Z,9.79
2019-04-07T21:38:20.865Z,9.71
2019-04-07T21:40:53.701Z,9.59
2019-04-07T21:43:28.446Z,9.46
2019-04-07T21:46:09.936Z,9.33
2019-04-07T21:48:41.327Z,9.28
2019-04-07T21:51:15.390Z,9.24
2019-04-07T21:53:45.741Z,9.20
2019-04-07T21:56:17.895Z,9.22
2019-04-07T21:58:49.294Z,9.20
2019-04-07T22:01:20.593Z,9.21
2019-04-07T22:03:54.846Z,9.24
2019-04-07T22:06:29.835Z,9.20
2019-04-07T22:09:02.230Z,9.17
2019-04-07T22:11:32.595Z,9.09
2019-04-07T22:14:04.142Z,9.09
2019-04-07T22:16:34.254Z,9.01
2019-04-07T22:19:04.256Z,8.89
2019-04-07T22:21:34.151Z,8.81
2019-04-07T22:24:04.820Z,8.80
2019-04-07T22:26:34.979Z,8.68
2019-04-07T22:29:05.535Z,8.72
2019-04-07T22:31:43.902Z,8.76
2019-04-07T22:34:11.147Z,8.74
2019-04-07T22:36:43.744Z,8.73
2019-04-07T22:39:12.131Z,8.73
2019-04-07T22:41:42.849Z,8.73
2019-04-07T22:44:13.375Z,8.54
2019-04-07T22:46:43.718Z,8.43
2019-04-07T22:49:13.541Z,8.38
2019-04-07T22:51:46.014Z,8.27
2019-04-07T22:54:14.519Z,8.30
2019-04-07T22:56:44.662Z,8.33
2019-04-07T22:59:14.292Z,8.27
2019-04-07T23:01:43.963Z,8.24
2019-04-07T23:04:14.044Z,8.19
2019-04-07T23:06:44.621Z,8.04
2019-04-07T23:09:14.251Z,7.99
2019-04-07T23:11:44.152Z,7.97
2019-04-07T23:14:13.908Z,7.94
2019-04-07T23:16:44.348Z,7.91
2019-04-07T23:19:14.343Z,7.91
2019-04-07T23:21:44.136Z,7.90
2019-04-07T23:24:13.865Z,7.87
2019-04-07T23:26:43.539Z,7.82
2019-04-07T23:29:14.163Z,7.63
2019-04-07T23:31:44.082Z,7.55
2019-04-07T23:34:13.725Z,7.58
2019-04-07T23:36:43.626Z,7.62
2019-04-07T23:39:13.290Z,7.59
2019-04-07T23:41:43.555Z,7.57
2019-04-07T23:44:13.160Z,7.55
2019-04-07T23:46:43.536Z,7.54
2019-04-07T23:49:13.219Z,7.53
2019-04-07T23:51:43.458Z,7.58
2019-04-07T23:54:14.347Z,7.49
2019-04-07T23:56:44.462Z,7.46
2019-04-07T23:59:15.085Z,7.42
